sensor_id;sensor_type;location;lat;lon;timestamp;temperature;humidity
13880;DHT22;7010;48.200;16.332;2022-11-06T00:01:25;8.10;99.90
13880;DHT22;7010;48.200;16.332;2022-11-06T00:03:53;8.00;99.90
13880;DHT22;7010;48.200;16.332;2022-11-06T00:06:22;8.00;99.90
13880;DHT22;7010;48.200;16.332;2022-11-06T00:09:11;8.10;99.90
13880;DHT22;7010;48.200;16.332;2022-11-06T00:11:40;8.00;99.90
13880;DHT22;7010;48.200;16.332;2022-11-06T00:14:13;8.00;99.90
13880;DHT22;7010;48.200;16.332;2022-11-06T00:16:42;7.90;99.90
13880;DHT22;7010;48.200;16.332;2022-11-06T00:19:11;7.90;99.90
13880;DHT22;7010;48.200;16.332;2022-11-06T00:21:39;7.90;99.90
13880;DHT22;7010;48.200;16.332;2022-11-06T00:24:10;8.00;99.90
13880;DHT22;7010;48.200;16.332;2022-11-06T00:26:40;7.90;99.90
13880;DHT22;7010;48.200;16.332;2022-11-06T00:29:13;7.80;99.90
13880;DHT22;7010;48.200;16.332;2022-11-06T00:31:42;7.80;99.90
13880;DHT22;7010;48.200;16.332;2022-11-06T00:34:10;7.80;99.90
13880;DHT22;7010;48.200;16.332;2022-11-06T00:36:38;7.70;99.90
13880;DHT22;7010;48.200;16.332;2022-11-06T00:39:10;7.70;99.90
13880;DHT22;7010;48.200;16.332;2022-11-06T00:41:38;7.70;99.90
13880;DHT22;7010;48.200;16.332;2022-11-06T00:44:09;7.60;99.90
13880;DHT22;7010;48.200;16.332;2022-11-06T00:46:39;7.70;99.90
13880;DHT22;7010;48.200;16.332;2022-11-06T00:49:07;7.60;99.90
13880;DHT22;7010;48.200;16.332;2022-11-06T00:51:36;7.60;99.90
13880;DHT22;7010;48.200;16.332;2022-11-06T00:54:08;7.60;99.90
13880;DHT22;7010;48.200;16.332;2022-11-06T00:56:37;7.60;99.90
13880;DHT22;7010;48.200;16.332;2022-11-06T00:59:06;7.50;99.90
13880;DHT22;7010;48.200;16.332;2022-11-06T01:01:38;7.50;99.90
13880;DHT22;7010;48.200;16.332;2022-11-06T01:04:10;7.50;99.90
13880;DHT22;7010;48.200;16.332;2022-11-06T01:06:41;7.50;99.90
13880;DHT22;7010;48.200;16.332;2022-11-06T01:09:12;7.50;99.90
13880;DHT22;7010;48.200;16.332;2022-11-06T01:11:42;7.40;99.90
13880;DHT22;7010;48.200;16.332;2022-11-06T01:14:31;7.50;99.90
13880;DHT22;7010;48.200;16.332;2022-11-06T01:17:00;7.50;99.90
13880;DHT22;7010;48.200;16.332;2022-11-06T01:19:29;7.50;99.90
13880;DHT22;7010;48.200;16.332;2022-11-06T01:21:57;7.50;99.90
13880;DHT22;7010;48.200;16.332;2022-11-06T01:24:26;7.40;99.90
13880;DHT22;7010;48.200;16.332;2022-11-06T01:26:56;7.50;99.90
13880;DHT22;7010;48.200;16.332;2022-11-06T01:29:44;7.50;99.90
13880;DHT22;7010;48.200;16.332;2022-11-06T01:32:14;7.40;99.90
13880;DHT22;7010;48.200;16.332;2022-11-06T01:34:43;7.50;99.90
13880;DHT22;7010;48.200;16.332;2022-11-06T01:37:12;7.50;99.90
13880;DHT22;7010;48.200;16.332;2022-11-06T01:39:41;7.40;99.90
13880;DHT22;7010;48.200;16.332;2022-11-06T01:42:10;7.50;99.90
13880;DHT22;7010;48.200;16.332;2022-11-06T01:47:45;7.40;99.90
13880;DHT22;7010;48.200;16.332;2022-11-06T01:50:15;7.40;99.90
13880;DHT22;7010;48.200;16.332;2022-11-06T01:52:45;7.50;99.90
13880;DHT22;7010;48.200;16.332;2022-11-06T01:55:18;7.40;99.90
13880;DHT22;7010;48.200;16.332;2022-11-06T01:57:48;7.40;99.90
13880;DHT22;7010;48.200;16.332;2022-11-06T02:00:17;7.40;99.90
13880;DHT22;7010;48.200;16.332;2022-11-06T02:02:49;7.40;99.90
13880;DHT22;7010;48.200;16.332;2022-11-06T02:05:18;7.40;99.90
13880;DHT22;7010;48.200;16.332;2022-11-06T02:07:47;7.40;99.90
13880;DHT22;7010;48.200;16.332;2022-11-06T02:10:15;7.30;99.90
13880;DHT22;7010;48.200;16.332;2022-11-06T02:12:49;7.40;99.90
13880;DHT22;7010;48.200;16.332;2022-11-06T02:15:26;7.40;99.90
13880;DHT22;7010;48.200;16.332;2022-11-06T02:18:13;7.40;99.90
13880;DHT22;7010;48.200;16.332;2022-11-06T02:20:57;7.40;99.90
13880;DHT22;7010;48.200;16.332;2022-11-06T02:23:40;7.30;99.90
13880;DHT22;7010;48.200;16.332;2022-11-06T02:26:23;7.40;99.90
13880;DHT22;7010;48.200;16.332;2022-11-06T02:28:58;7.30;99.90
13880;DHT22;7010;48.200;16.332;2022-11-06T02:31:31;7.40;99.90
13880;DHT22;7010;48.200;16.332;2022-11-06T02:34:03;7.40;99.90
13880;DHT22;7010;48.200;16.332;2022-11-06T02:36:36;7.40;99.90
13880;DHT22;7010;48.200;16.332;2022-11-06T02:39:09;7.30;99.90
13880;DHT22;7010;48.200;16.332;2022-11-06T02:41:42;7.40;99.90
13880;DHT22;7010;48.200;16.332;2022-11-06T02:44:16;7.30;99.90
13880;DHT22;7010;48.200;16.332;2022-11-06T02:46:49;7.40;99.90
13880;DHT22;7010;48.200;16.332;2022-11-06T02:49:24;7.30;99.90
13880;DHT22;7010;48.200;16.332;2022-11-06T02:51:57;7.40;99.90
13880;DHT22;7010;48.200;16.332;2022-11-06T02:54:28;7.30;99.90
13880;DHT22;7010;48.200;16.332;2022-11-06T02:57:00;7.30;99.90
13880;DHT22;7010;48.200;16.332;2022-11-06T02:59:39;7.40;99.90
13880;DHT22;7010;48.200;16.332;2022-11-06T03:02:13;7.30;99.90
13880;DHT22;7010;48.200;16.332;2022-11-06T03:04:46;7.30;99.90
13880;DHT22;7010;48.200;16.332;2022-11-06T03:07:18;7.30;99.90
13880;DHT22;7010;48.200;16.332;2022-11-06T03:09:49;7.20;99.90
13880;DHT22;7010;48.200;16.332;2022-11-06T03:12:22;7.20;99.90
13880;DHT22;7010;48.200;16.332;2022-11-06T03:14:57;7.20;99.90
13880;DHT22;7010;48.200;16.332;2022-11-06T03:17:36;7.20;99.90
13880;DHT22;7010;48.200;16.332;2022-11-06T03:20:17;7.20;99.90
13880;DHT22;7010;48.200;16.332;2022-11-06T03:22:53;7.10;99.90
13880;DHT22;7010;48.200;16.332;2022-11-06T03:25:25;7.20;99.90
13880;DHT22;7010;48.200;16.332;2022-11-06T03:28:00;7.20;99.90
13880;DHT22;7010;48.200;16.332;2022-11-06T03:30:33;7.20;99.90
13880;DHT22;7010;48.200;16.332;2022-11-06T03:33:08;7.20;99.90
13880;DHT22;7010;48.200;16.332;2022-11-06T03:35:41;7.10;99.90
13880;DHT22;7010;48.200;16.332;2022-11-06T03:38:15;7.10;99.90
13880;DHT22;7010;48.200;16.332;2022-11-06T03:40:48;7.10;99.90
13880;DHT22;7010;48.200;16.332;2022-11-06T03:43:20;7.10;99.90
13880;DHT22;7010;48.200;16.332;2022-11-06T03:45:52;7.10;99.90
13880;DHT22;7010;48.200;16.332;2022-11-06T03:48:25;7.10;99.90
13880;DHT22;7010;48.200;16.332;2022-11-06T03:51:00;7.20;99.90
13880;DHT22;7010;48.200;16.332;2022-11-06T03:53:35;7.10;99.90
13880;DHT22;7010;48.200;16.332;2022-11-06T03:56:07;7.00;99.90
13880;DHT22;7010;48.200;16.332;2022-11-06T03:58:38;7.00;99.90
13880;DHT22;7010;48.200;16.332;2022-11-06T04:01:11;7.00;99.90
13880;DHT22;7010;48.200;16.332;2022-11-06T04:03:43;7.00;99.90
13880;DHT22;7010;48.200;16.332;2022-11-06T04:06:16;7.00;99.90
13880;DHT22;7010;48.200;16.332;2022-11-06T04:08:46;7.00;99.90
13880;DHT22;7010;48.200;16.332;2022-11-06T04:11:34;6.90;99.90
13880;DHT22;7010;48.200;16.332;2022-11-06T04:14:24;6.90;99.90
13880;DHT22;7010;48.200;16.332;2022-11-06T04:16:57;6.90;99.90
13880;DHT22;7010;48.200;16.332;2022-11-06T04:19:26;6.90;99.90
13880;DHT22;7010;48.200;16.332;2022-11-06T04:22:15;6.90;99.90
13880;DHT22;7010;48.200;16.332;2022-11-06T04:24:55;6.90;99.90
13880;DHT22;7010;48.200;16.332;2022-11-06T04:27:51;6.90;99.90
13880;DHT22;7010;48.200;16.332;2022-11-06T04:30:20;6.80;99.90
13880;DHT22;7010;48.200;16.332;2022-11-06T04:32:59;6.90;99.90
13880;DHT22;7010;48.200;16.332;2022-11-06T04:35:33;6.80;99.90
13880;DHT22;7010;48.200;16.332;2022-11-06T04:38:11;6.80;99.90
13880;DHT22;7010;48.200;16.332;2022-11-06T04:40:50;6.80;99.90
13880;DHT22;7010;48.200;16.332;2022-11-06T04:43:24;6.80;99.90
13880;DHT22;7010;48.200;16.332;2022-11-06T04:45:57;6.80;99.90
13880;DHT22;7010;48.200;16.332;2022-11-06T04:48:28;6.90;99.90
13880;DHT22;7010;48.200;16.332;2022-11-06T04:51:00;6.80;99.90
13880;DHT22;7010;48.200;16.332;2022-11-06T04:53:29;6.70;99.90
13880;DHT22;7010;48.200;16.332;2022-11-06T04:56:04;6.70;99.90
13880;DHT22;7010;48.200;16.332;2022-11-06T04:58:33;6.70;99.90
13880;DHT22;7010;48.200;16.332;2022-11-06T05:01:02;6.80;99.90
13880;DHT22;7010;48.200;16.332;2022-11-06T05:03:32;6.70;99.90
13880;DHT22;7010;48.200;16.332;2022-11-06T05:06:00;6.70;99.90
13880;DHT22;7010;48.200;16.332;2022-11-06T05:08:29;6.70;99.90
13880;DHT22;7010;48.200;16.332;2022-11-06T05:10:57;6.80;99.90
13880;DHT22;7010;48.200;16.332;2022-11-06T05:13:25;6.80;99.90
13880;DHT22;7010;48.200;16.332;2022-11-06T05:15:54;6.70;99.90
13880;DHT22;7010;48.200;16.332;2022-11-06T05:18:23;6.70;99.90
13880;DHT22;7010;48.200;16.332;2022-11-06T05:20:53;6.70;99.90
13880;DHT22;7010;48.200;16.332;2022-11-06T05:23:41;6.70;99.90
13880;DHT22;7010;48.200;16.332;2022-11-06T05:26:20;6.70;99.90
13880;DHT22;7010;48.200;16.332;2022-11-06T05:28:48;6.70;99.90
13880;DHT22;7010;48.200;16.332;2022-11-06T05:31:16;6.70;99.90
13880;DHT22;7010;48.200;16.332;2022-11-06T05:33:44;6.70;99.90
13880;DHT22;7010;48.200;16.332;2022-11-06T05:36:14;6.60;99.90
13880;DHT22;7010;48.200;16.332;2022-11-06T05:38:42;6.60;99.90
13880;DHT22;7010;48.200;16.332;2022-11-06T05:41:11;6.60;99.90
13880;DHT22;7010;48.200;16.332;2022-11-06T05:43:39;6.60;99.90
13880;DHT22;7010;48.200;16.332;2022-11-06T05:46:07;6.60;99.90
13880;DHT22;7010;48.200;16.332;2022-11-06T05:48:56;6.60;99.90
13880;DHT22;7010;48.200;16.332;2022-11-06T05:51:25;6.60;99.90
13880;DHT22;7010;48.200;16.332;2022-11-06T05:53:57;6.60;99.90
13880;DHT22;7010;48.200;16.332;2022-11-06T05:56:25;6.50;99.90
13880;DHT22;7010;48.200;16.332;2022-11-06T05:58:53;6.50;99.90
13880;DHT22;7010;48.200;16.332;2022-11-06T06:01:22;6.60;99.90
13880;DHT22;7010;48.200;16.332;2022-11-06T06:03:50;6.60;99.90
13880;DHT22;7010;48.200;16.332;2022-11-06T06:06:19;6.60;99.90
13880;DHT22;7010;48.200;16.332;2022-11-06T06:08:49;6.50;99.90
13880;DHT22;7010;48.200;16.332;2022-11-06T06:11:18;6.60;99.90
13880;DHT22;7010;48.200;16.332;2022-11-06T06:13:46;6.50;99.90
13880;DHT22;7010;48.200;16.332;2022-11-06T06:16:15;6.60;99.90
13880;DHT22;7010;48.200;16.332;2022-11-06T06:18:46;6.60;99.90
13880;DHT22;7010;48.200;16.332;2022-11-06T06:21:15;6.60;99.90
13880;DHT22;7010;48.200;16.332;2022-11-06T06:23:44;6.60;99.90
13880;DHT22;7010;48.200;16.332;2022-11-06T06:26:14;6.60;99.90
13880;DHT22;7010;48.200;16.332;2022-11-06T06:28:42;6.60;99.90
13880;DHT22;7010;48.200;16.332;2022-11-06T06:31:11;6.60;99.90
13880;DHT22;7010;48.200;16.332;2022-11-06T06:33:39;6.70;99.90
13880;DHT22;7010;48.200;16.332;2022-11-06T06:36:08;6.70;99.90
13880;DHT22;7010;48.200;16.332;2022-11-06T06:38:36;6.70;99.90
13880;DHT22;7010;48.200;16.332;2022-11-06T06:41:06;6.80;99.90
13880;DHT22;7010;48.200;16.332;2022-11-06T06:43:36;6.80;99.90
13880;DHT22;7010;48.200;16.332;2022-11-06T06:46:05;6.70;99.90
13880;DHT22;7010;48.200;16.332;2022-11-06T06:48:34;6.80;99.90
13880;DHT22;7010;48.200;16.332;2022-11-06T06:51:02;6.80;99.90
13880;DHT22;7010;48.200;16.332;2022-11-06T06:53:30;6.90;99.90
13880;DHT22;7010;48.200;16.332;2022-11-06T06:55:59;7.00;99.90
13880;DHT22;7010;48.200;16.332;2022-11-06T06:58:28;7.10;99.90
13880;DHT22;7010;48.200;16.332;2022-11-06T07:01:00;7.10;99.90
13880;DHT22;7010;48.200;16.332;2022-11-06T07:03:29;7.20;99.90
13880;DHT22;7010;48.200;16.332;2022-11-06T07:05:58;7.30;99.90
13880;DHT22;7010;48.200;16.332;2022-11-06T07:08:26;7.30;99.90
13880;DHT22;7010;48.200;16.332;2022-11-06T07:10:58;7.50;99.90
13880;DHT22;7010;48.200;16.332;2022-11-06T07:13:26;7.60;99.90
13880;DHT22;7010;48.200;16.332;2022-11-06T07:16:03;7.60;99.90
13880;DHT22;7010;48.200;16.332;2022-11-06T07:18:32;7.70;99.90
13880;DHT22;7010;48.200;16.332;2022-11-06T07:21:03;7.80;99.90
13880;DHT22;7010;48.200;16.332;2022-11-06T07:23:32;7.80;99.90
13880;DHT22;7010;48.200;16.332;2022-11-06T07:26:01;7.90;99.90
13880;DHT22;7010;48.200;16.332;2022-11-06T07:28:30;7.90;99.90
13880;DHT22;7010;48.200;16.332;2022-11-06T07:30:59;8.00;99.90
13880;DHT22;7010;48.200;16.332;2022-11-06T07:33:30;8.00;99.90
13880;DHT22;7010;48.200;16.332;2022-11-06T07:36:10;8.10;99.90
13880;DHT22;7010;48.200;16.332;2022-11-06T07:38:44;8.10;99.90
13880;DHT22;7010;48.200;16.332;2022-11-06T07:41:14;8.10;99.90
13880;DHT22;7010;48.200;16.332;2022-11-06T07:43:42;8.20;99.90
13880;DHT22;7010;48.200;16.332;2022-11-06T07:46:11;8.20;99.90
13880;DHT22;7010;48.200;16.332;2022-11-06T07:48:41;8.30;99.90
13880;DHT22;7010;48.200;16.332;2022-11-06T07:51:10;8.30;99.90
13880;DHT22;7010;48.200;16.332;2022-11-06T07:53:39;8.40;99.90
13880;DHT22;7010;48.200;16.332;2022-11-06T07:56:10;8.40;99.90
13880;DHT22;7010;48.200;16.332;2022-11-06T07:58:40;8.50;99.90
13880;DHT22;7010;48.200;16.332;2022-11-06T08:01:13;8.50;99.90
13880;DHT22;7010;48.200;16.332;2022-11-06T08:03:46;8.60;99.90
13880;DHT22;7010;48.200;16.332;2022-11-06T08:06:14;8.60;99.90
13880;DHT22;7010;48.200;16.332;2022-11-06T08:08:48;8.70;99.90
13880;DHT22;7010;48.200;16.332;2022-11-06T08:11:23;8.80;99.90
13880;DHT22;7010;48.200;16.332;2022-11-06T08:13:51;8.90;99.90
13880;DHT22;7010;48.200;16.332;2022-11-06T08:16:19;8.90;99.90
13880;DHT22;7010;48.200;16.332;2022-11-06T08:18:49;9.00;99.90
13880;DHT22;7010;48.200;16.332;2022-11-06T08:21:17;9.10;99.90
13880;DHT22;7010;48.200;16.332;2022-11-06T08:23:46;9.20;99.90
13880;DHT22;7010;48.200;16.332;2022-11-06T08:26:14;9.20;99.90
13880;DHT22;7010;48.200;16.332;2022-11-06T08:28:42;9.20;99.90
13880;DHT22;7010;48.200;16.332;2022-11-06T08:31:11;9.30;99.90
13880;DHT22;7010;48.200;16.332;2022-11-06T08:33:40;9.40;99.90
13880;DHT22;7010;48.200;16.332;2022-11-06T08:36:09;9.40;99.90
13880;DHT22;7010;48.200;16.332;2022-11-06T08:38:38;9.60;99.90
13880;DHT22;7010;48.200;16.332;2022-11-06T08:41:08;9.60;99.90
13880;DHT22;7010;48.200;16.332;2022-11-06T08:43:37;9.80;99.90
13880;DHT22;7010;48.200;16.332;2022-11-06T08:46:06;9.80;99.90
13880;DHT22;7010;48.200;16.332;2022-11-06T08:48:52;9.90;99.90
13880;DHT22;7010;48.200;16.332;2022-11-06T08:51:36;10.00;99.90
13880;DHT22;7010;48.200;16.332;2022-11-06T08:54:05;10.00;99.90
13880;DHT22;7010;48.200;16.332;2022-11-06T08:56:33;10.10;99.90
13880;DHT22;7010;48.200;16.332;2022-11-06T08:59:01;10.10;99.90
13880;DHT22;7010;48.200;16.332;2022-11-06T09:01:29;10.20;99.90
13880;DHT22;7010;48.200;16.332;2022-11-06T09:03:58;10.20;99.90
13880;DHT22;7010;48.200;16.332;2022-11-06T09:06:26;10.30;99.90
13880;DHT22;7010;48.200;16.332;2022-11-06T09:08:56;10.40;99.90
13880;DHT22;7010;48.200;16.332;2022-11-06T09:11:25;10.50;99.90
13880;DHT22;7010;48.200;16.332;2022-11-06T09:13:53;10.60;99.90
13880;DHT22;7010;48.200;16.332;2022-11-06T09:16:22;10.70;99.90
13880;DHT22;7010;48.200;16.332;2022-11-06T09:18:52;10.70;99.90
13880;DHT22;7010;48.200;16.332;2022-11-06T09:21:21;10.80;99.90
13880;DHT22;7010;48.200;16.332;2022-11-06T09:23:55;10.90;99.90
13880;DHT22;7010;48.200;16.332;2022-11-06T09:26:24;10.90;99.90
13880;DHT22;7010;48.200;16.332;2022-11-06T09:29:01;11.00;99.90
13880;DHT22;7010;48.200;16.332;2022-11-06T09:31:35;11.10;99.90
13880;DHT22;7010;48.200;16.332;2022-11-06T09:34:04;11.30;99.90
13880;DHT22;7010;48.200;16.332;2022-11-06T09:36:32;11.30;99.90
13880;DHT22;7010;48.200;16.332;2022-11-06T09:39:02;11.30;99.90
13880;DHT22;7010;48.200;16.332;2022-11-06T09:41:38;11.40;99.90
13880;DHT22;7010;48.200;16.332;2022-11-06T09:44:23;11.50;99.90
13880;DHT22;7010;48.200;16.332;2022-11-06T09:46:56;11.50;99.90
13880;DHT22;7010;48.200;16.332;2022-11-06T09:49:29;11.70;99.90
13880;DHT22;7010;48.200;16.332;2022-11-06T09:52:03;11.90;99.90
13880;DHT22;7010;48.200;16.332;2022-11-06T09:54:37;12.00;99.90
13880;DHT22;7010;48.200;16.332;2022-11-06T09:57:12;12.10;99.90
13880;DHT22;7010;48.200;16.332;2022-11-06T09:59:43;12.30;99.90
13880;DHT22;7010;48.200;16.332;2022-11-06T10:02:27;12.40;99.90
13880;DHT22;7010;48.200;16.332;2022-11-06T10:05:04;12.60;99.90
13880;DHT22;7010;48.200;16.332;2022-11-06T10:07:34;12.80;99.90
13880;DHT22;7010;48.200;16.332;2022-11-06T10:10:07;12.90;99.90
13880;DHT22;7010;48.200;16.332;2022-11-06T10:12:50;13.30;99.90
13880;DHT22;7010;48.200;16.332;2022-11-06T10:15:25;13.50;99.90
13880;DHT22;7010;48.200;16.332;2022-11-06T10:18:13;13.90;99.90
13880;DHT22;7010;48.200;16.332;2022-11-06T10:20:51;14.00;99.90
13880;DHT22;7010;48.200;16.332;2022-11-06T10:23:29;14.20;99.90
13880;DHT22;7010;48.200;16.332;2022-11-06T10:26:09;14.50;99.90
13880;DHT22;7010;48.200;16.332;2022-11-06T10:29:20;14.50;99.90
13880;DHT22;7010;48.200;16.332;2022-11-06T10:32:10;14.70;99.90
13880;DHT22;7010;48.200;16.332;2022-11-06T10:34:44;14.80;99.90
13880;DHT22;7010;48.200;16.332;2022-11-06T10:37:20;14.90;99.90
13880;DHT22;7010;48.200;16.332;2022-11-06T10:39:55;14.90;99.90
13880;DHT22;7010;48.200;16.332;2022-11-06T10:42:33;15.00;99.90
13880;DHT22;7010;48.200;16.332;2022-11-06T10:45:09;15.10;99.90
13880;DHT22;7010;48.200;16.332;2022-11-06T10:47:42;15.50;99.90
13880;DHT22;7010;48.200;16.332;2022-11-06T10:50:14;15.60;99.90
13880;DHT22;7010;48.200;16.332;2022-11-06T10:52:54;15.60;99.90
13880;DHT22;7010;48.200;16.332;2022-11-06T10:55:58;15.70;99.90
13880;DHT22;7010;48.200;16.332;2022-11-06T10:58:38;15.60;99.90
13880;DHT22;7010;48.200;16.332;2022-11-06T11:01:13;15.80;99.90
13880;DHT22;7010;48.200;16.332;2022-11-06T11:03:53;15.60;99.90
13880;DHT22;7010;48.200;16.332;2022-11-06T11:06:22;15.60;99.90
13880;DHT22;7010;48.200;16.332;2022-11-06T11:08:51;15.90;99.90
13880;DHT22;7010;48.200;16.332;2022-11-06T11:11:23;15.90;99.90
13880;DHT22;7010;48.200;16.332;2022-11-06T11:14:13;15.90;99.90
13880;DHT22;7010;48.200;16.332;2022-11-06T11:16:43;15.80;99.90
13880;DHT22;7010;48.200;16.332;2022-11-06T11:19:23;15.90;99.90
13880;DHT22;7010;48.200;16.332;2022-11-06T11:21:59;16.30;99.90
13880;DHT22;7010;48.200;16.332;2022-11-06T11:24:28;16.40;99.80
13880;DHT22;7010;48.200;16.332;2022-11-06T11:26:59;16.40;99.90
13880;DHT22;7010;48.200;16.332;2022-11-06T11:29:32;16.40;99.90
13880;DHT22;7010;48.200;16.332;2022-11-06T11:32:06;16.60;99.90
13880;DHT22;7010;48.200;16.332;2022-11-06T11:34:50;16.90;99.90
13880;DHT22;7010;48.200;16.332;2022-11-06T11:37:38;17.30;99.90
13880;DHT22;7010;48.200;16.332;2022-11-06T12:26:33;19.90;91.70
13880;DHT22;7010;48.200;16.332;2022-11-06T12:29:06;20.00;91.70
13880;DHT22;7010;48.200;16.332;2022-11-06T12:31:39;20.10;92.20
13880;DHT22;7010;48.200;16.332;2022-11-06T12:34:12;20.20;89.50
13880;DHT22;7010;48.200;16.332;2022-11-06T12:36:47;20.60;88.00
13880;DHT22;7010;48.200;16.332;2022-11-06T12:40:02;20.50;86.50
13880;DHT22;7010;48.200;16.332;2022-11-06T12:42:53;20.80;88.00
13880;DHT22;7010;48.200;16.332;2022-11-06T12:45:37;20.80;86.10
13880;DHT22;7010;48.200;16.332;2022-11-06T12:48:25;21.00;85.60
13880;DHT22;7010;48.200;16.332;2022-11-06T12:51:03;20.40;84.00
13880;DHT22;7010;48.200;16.332;2022-11-06T12:53:47;20.40;85.70
13880;DHT22;7010;48.200;16.332;2022-11-06T12:56:32;20.50;84.80
13880;DHT22;7010;48.200;16.332;2022-11-06T12:59:20;20.20;82.40
13880;DHT22;7010;48.200;16.332;2022-11-06T13:02:10;20.00;85.30
13880;DHT22;7010;48.200;16.332;2022-11-06T13:04:57;19.90;86.80
13880;DHT22;7010;48.200;16.332;2022-11-06T13:08:07;20.00;84.50
13880;DHT22;7010;48.200;16.332;2022-11-06T13:10:54;19.80;85.80
13880;DHT22;7010;48.200;16.332;2022-11-06T13:13:47;19.80;86.90
13880;DHT22;7010;48.200;16.332;2022-11-06T13:16:32;19.80;86.90
13880;DHT22;7010;48.200;16.332;2022-11-06T13:19:07;19.80;85.90
13880;DHT22;7010;48.200;16.332;2022-11-06T13:21:59;19.60;86.90
13880;DHT22;7010;48.200;16.332;2022-11-06T13:24:31;19.50;87.00
13880;DHT22;7010;48.200;16.332;2022-11-06T13:27:07;19.30;90.30
13880;DHT22;7010;48.200;16.332;2022-11-06T13:29:38;19.10;87.10
13880;DHT22;7010;48.200;16.332;2022-11-06T13:32:12;19.00;90.30
13880;DHT22;7010;48.200;16.332;2022-11-06T13:34:42;18.80;90.30
13880;DHT22;7010;48.200;16.332;2022-11-06T13:37:16;18.60;88.70
13880;DHT22;7010;48.200;16.332;2022-11-06T13:39:51;18.40;91.30
13880;DHT22;7010;48.200;16.332;2022-11-06T13:42:28;18.30;90.80
13880;DHT22;7010;48.200;16.332;2022-11-06T13:44:59;18.20;91.30
13880;DHT22;7010;48.200;16.332;2022-11-06T13:47:34;18.10;91.50
13880;DHT22;7010;48.200;16.332;2022-11-06T13:50:09;18.00;91.20
13880;DHT22;7010;48.200;16.332;2022-11-06T13:52:48;17.70;91.10
13880;DHT22;7010;48.200;16.332;2022-11-06T13:55:23;17.50;91.60
13880;DHT22;7010;48.200;16.332;2022-11-06T14:00:55;17.00;92.30
13880;DHT22;7010;48.200;16.332;2022-11-06T14:03:40;16.60;92.60
13880;DHT22;7010;48.200;16.332;2022-11-06T14:06:15;16.20;94.00
13880;DHT22;7010;48.200;16.332;2022-11-06T14:08:48;15.90;93.90
13880;DHT22;7010;48.200;16.332;2022-11-06T14:11:20;15.70;94.70
13880;DHT22;7010;48.200;16.332;2022-11-06T14:13:58;15.40;95.20
13880;DHT22;7010;48.200;16.332;2022-11-06T14:16:29;15.20;95.40
13880;DHT22;7010;48.200;16.332;2022-11-06T14:19:03;14.90;95.40
13880;DHT22;7010;48.200;16.332;2022-11-06T14:21:50;14.60;96.40
13880;DHT22;7010;48.200;16.332;2022-11-06T14:24:37;14.40;97.30
13880;DHT22;7010;48.200;16.332;2022-11-06T14:27:09;14.20;98.00
13880;DHT22;7010;48.200;16.332;2022-11-06T14:32:45;13.90;99.00
13880;DHT22;7010;48.200;16.332;2022-11-06T14:38:45;13.70;99.90
13880;DHT22;7010;48.200;16.332;2022-11-06T14:41:51;13.60;99.90
13880;DHT22;7010;48.200;16.332;2022-11-06T14:44:24;13.40;99.90
13880;DHT22;7010;48.200;16.332;2022-11-06T14:46:55;13.30;99.90
13880;DHT22;7010;48.200;16.332;2022-11-06T14:49:35;13.20;99.90
13880;DHT22;7010;48.200;16.332;2022-11-06T14:52:07;13.20;99.90
13880;DHT22;7010;48.200;16.332;2022-11-06T14:54:40;13.10;99.90
13880;DHT22;7010;48.200;16.332;2022-11-06T14:57:14;13.00;99.90
13880;DHT22;7010;48.200;16.332;2022-11-06T14:59:44;13.00;99.90
13880;DHT22;7010;48.200;16.332;2022-11-06T15:02:18;12.90;99.90
13880;DHT22;7010;48.200;16.332;2022-11-06T15:05:01;12.80;99.90
13880;DHT22;7010;48.200;16.332;2022-11-06T15:07:35;12.70;99.90
13880;DHT22;7010;48.200;16.332;2022-11-06T15:10:53;12.60;99.90
13880;DHT22;7010;48.200;16.332;2022-11-06T15:13:27;12.50;99.90
13880;DHT22;7010;48.200;16.332;2022-11-06T15:16:11;12.50;99.90
13880;DHT22;7010;48.200;16.332;2022-11-06T15:18:42;12.40;99.90
13880;DHT22;7010;48.200;16.332;2022-11-06T15:21:16;12.40;99.90
13880;DHT22;7010;48.200;16.332;2022-11-06T15:23:53;12.40;99.90
13880;DHT22;7010;48.200;16.332;2022-11-06T15:26:26;12.30;99.90
13880;DHT22;7010;48.200;16.332;2022-11-06T15:29:20;12.20;99.90
13880;DHT22;7010;48.200;16.332;2022-11-06T15:31:52;12.10;99.90
13880;DHT22;7010;48.200;16.332;2022-11-06T15:34:26;12.10;99.90
13880;DHT22;7010;48.200;16.332;2022-11-06T15:37:03;12.00;99.90
13880;DHT22;7010;48.200;16.332;2022-11-06T15:39:38;11.90;99.90
13880;DHT22;7010;48.200;16.332;2022-11-06T15:42:13;11.90;99.90
13880;DHT22;7010;48.200;16.332;2022-11-06T15:45:05;11.80;99.90
13880;DHT22;7010;48.200;16.332;2022-11-06T15:47:34;11.70;99.90
13880;DHT22;7010;48.200;16.332;2022-11-06T15:50:13;11.60;99.90
13880;DHT22;7010;48.200;16.332;2022-11-06T15:52:44;11.60;99.90
13880;DHT22;7010;48.200;16.332;2022-11-06T15:55:13;11.50;99.90
13880;DHT22;7010;48.200;16.332;2022-11-06T15:57:51;11.50;99.90
13880;DHT22;7010;48.200;16.332;2022-11-06T16:00:22;11.50;99.90
13880;DHT22;7010;48.200;16.332;2022-11-06T16:02:57;11.40;99.90
13880;DHT22;7010;48.200;16.332;2022-11-06T16:05:28;11.40;99.90
13880;DHT22;7010;48.200;16.332;2022-11-06T16:07:58;11.40;99.90
13880;DHT22;7010;48.200;16.332;2022-11-06T16:10:27;11.30;99.90
13880;DHT22;7010;48.200;16.332;2022-11-06T16:12:57;11.20;99.90
13880;DHT22;7010;48.200;16.332;2022-11-06T16:15:46;11.20;99.90
13880;DHT22;7010;48.200;16.332;2022-11-06T16:18:17;11.20;99.90
13880;DHT22;7010;48.200;16.332;2022-11-06T16:20:48;11.10;99.90
13880;DHT22;7010;48.200;16.332;2022-11-06T16:23:18;11.10;99.90
13880;DHT22;7010;48.200;16.332;2022-11-06T16:25:59;11.10;99.90
13880;DHT22;7010;48.200;16.332;2022-11-06T16:28:32;11.00;99.90
13880;DHT22;7010;48.200;16.332;2022-11-06T16:31:07;10.90;99.90
13880;DHT22;7010;48.200;16.332;2022-11-06T16:33:37;10.90;99.90
13880;DHT22;7010;48.200;16.332;2022-11-06T16:36:08;10.90;99.90
13880;DHT22;7010;48.200;16.332;2022-11-06T16:38:41;10.80;99.90
13880;DHT22;7010;48.200;16.332;2022-11-06T16:41:12;10.80;99.90
13880;DHT22;7010;48.200;16.332;2022-11-06T16:44:22;10.80;99.90
13880;DHT22;7010;48.200;16.332;2022-11-06T16:47:20;10.70;99.90
13880;DHT22;7010;48.200;16.332;2022-11-06T16:49:50;10.70;99.90
13880;DHT22;7010;48.200;16.332;2022-11-06T16:52:24;10.60;99.90
13880;DHT22;7010;48.200;16.332;2022-11-06T16:54:55;10.60;99.90
13880;DHT22;7010;48.200;16.332;2022-11-06T16:57:26;10.60;99.90
13880;DHT22;7010;48.200;16.332;2022-11-06T17:00:03;10.60;99.90
13880;DHT22;7010;48.200;16.332;2022-11-06T17:02:36;10.50;99.90
13880;DHT22;7010;48.200;16.332;2022-11-06T17:05:14;10.50;99.90
13880;DHT22;7010;48.200;16.332;2022-11-06T17:07:43;10.50;99.90
13880;DHT22;7010;48.200;16.332;2022-11-06T17:10:37;10.40;99.90
13880;DHT22;7010;48.200;16.332;2022-11-06T17:13:15;10.40;99.90
13880;DHT22;7010;48.200;16.332;2022-11-06T17:15:51;10.40;99.90
13880;DHT22;7010;48.200;16.332;2022-11-06T17:18:22;10.30;99.90
13880;DHT22;7010;48.200;16.332;2022-11-06T17:20:53;10.30;99.90
13880;DHT22;7010;48.200;16.332;2022-11-06T17:23:22;10.30;99.90